Time;durP1;ratioP1;P1;durP2;ratioP2;P2;SDS_P1;SDS_P2;PMS_P1;PMS_P2;Temp;Humidity;BMP_temperature;BMP_pressure;BME280_temperature;BME280_humidity;BME280_pressure;Samples;Min_cycle;Max_cycle;Signal;HPM_P1;HPM_P2
2023/03/01 00:01:11;;;;;;;22.92;14.55;;;1.90;99.90;;;;;;5075076;28;20041;-70
2023/03/01 00:03:37;;;;;;;27.25;15.70;;;1.90;99.90;;;;;;5074833;28;20052;-69
2023/03/01 00:06:03;;;;;;;21.48;13.90;;;1.70;99.90;;;;;;5056991;28;20049;-70
2023/03/01 00:08:32;;;;;;;26.27;14.88;;;1.90;99.90;;;;;;5056875;28;20049;-70
2023/03/01 00:11:15;;;;;;;22.83;14.10;;;1.90;99.90;;;;;;5074682;28;20457;-69
2023/03/01 00:13:42;;;;;;;25.27;14.35;;;1.60;99.90;;;;;;5074615;28;20114;-70
2023/03/01 00:16:20;;;;;;;24.73;14.20;;;1.60;99.90;;;;;;5074808;28;20044;-69
2023/03/01 00:18:46;;;;;;;23.50;14.05;;;1.80;99.90;;;;;;5074746;28;20044;-70
2023/03/01 00:21:12;;;;;;;22.10;14.18;;;1.50;99.90;;;;;;5074441;28;20462;-70
2023/03/01 00:23:38;;;;;;;26.05;14.50;;;1.60;99.90;;;;;;5074343;28;20119;-69
2023/03/01 00:26:09;;;;;;;26.48;14.98;;;1.80;99.90;;;;;;5074723;28;20078;-70
2023/03/01 00:28:35;;;;;;;23.15;15.07;;;1.70;99.90;;;;;;5056445;28;20048;-69
2023/03/01 00:31:09;;;;;;;25.40;15.00;;;1.50;99.90;;;;;;5074402;28;20032;-70
2023/03/01 00:33:34;;;;;;;;;;;1.70;99.90;;;;;;5074440;28;20032;-70
2023/03/01 00:36:01;;;;;;;26.45;14.55;;;1.40;99.90;;;;;;5074360;28;19923;-70
2023/03/01 00:38:26;;;;;;;25.85;15.38;;;1.50;99.90;;;;;;5074481;28;20044;-70
2023/03/01 00:40:52;;;;;;;26.42;15.20;;;1.30;99.90;;;;;;5074190;28;20032;-69
2023/03/01 00:43:18;;;;;;;25.58;15.18;;;1.30;99.90;;;;;;5073935;28;20115;-69
2023/03/01 00:45:44;;;;;;;25.38;15.68;;;1.50;99.90;;;;;;5056541;28;20044;-70
2023/03/01 00:48:09;;;;;;;24.13;15.02;;;1.50;99.90;;;;;;5073993;28;20566;-70
2023/03/01 00:50:35;;;;;;;26.45;15.20;;;1.40;99.90;;;;;;5056138;28;20048;-69
2023/03/01 00:53:00;;;;;;;24.45;15.35;;;1.60;99.90;;;;;;5074178;28;20511;-70
2023/03/01 00:55:26;;;;;;;29.42;16.58;;;1.40;99.90;;;;;;5074032;28;20037;-69
2023/03/01 00:57:52;;;;;;;21.20;13.75;;;1.30;99.90;;;;;;5074079;28;20079;-69
2023/03/01 01:00:18;;;;;;;25.77;14.88;;;1.30;99.90;;;;;;5073376;28;20045;-69
2023/03/01 01:02:44;;;;;;;23.98;14.07;;;1.40;99.90;;;;;;5073794;28;20065;-69
2023/03/01 01:05:10;;;;;;;25.15;14.15;;;1.40;99.90;;;;;;5073854;28;20037;-69
2023/03/01 01:07:36;;;;;;;19.95;13.27;;;1.20;99.90;;;;;;5056001;28;20090;-69
2023/03/01 01:10:02;;;;;;;28.23;15.35;;;1.20;99.90;;;;;;5073858;28;20435;-70
2023/03/01 01:12:28;;;;;;;23.95;14.70;;;1.20;99.90;;;;;;5073596;28;20045;-70
2023/03/01 01:14:53;;;;;;;25.58;14.68;;;1.30;99.90;;;;;;5073579;28;20039;-69
2023/03/01 01:17:19;;;;;;;24.63;14.63;;;1.40;99.90;;;;;;5055924;28;20033;-70
2023/03/01 01:19:44;;;;;;;19.92;11.65;;;1.00;99.90;;;;;;5073546;28;20037;-69
2023/03/01 01:22:10;;;;;;;15.82;11.68;;;1.30;99.90;;;;;;5073418;28;20044;-70
2023/03/01 01:24:36;;;;;;;19.92;12.50;;;1.00;99.90;;;;;;5073371;28;20179;-69
2023/03/01 01:27:01;;;;;;;18.58;12.85;;;1.20;99.90;;;;;;5055625;28;20048;-70
2023/03/01 01:29:27;;;;;;;20.70;12.73;;;1.00;99.90;;;;;;5073221;28;20041;-70
2023/03/01 01:31:52;;;;;;;20.52;12.45;;;1.00;99.90;;;;;;5073094;28;20086;-69
2023/03/01 01:34:20;;;;;;;20.75;12.32;;;1.20;99.90;;;;;;5073235;28;20040;-69
2023/03/01 01:36:56;;;;;;;19.52;12.45;;;1.00;99.90;;;;;;5073273;28;20442;-69
2023/03/01 01:39:22;;;;;;;22.20;13.52;;;1.00;99.90;;;;;;5073304;28;20064;-69
2023/03/01 01:41:48;;;;;;;23.42;13.73;;;1.10;99.90;;;;;;5073019;28;20044;-69
2023/03/01 01:44:18;;;;;;;28.40;15.05;;;0.90;99.90;;;;;;5072849;28;20123;-69
2023/03/01 01:47:00;;;;;;;25.15;14.52;;;1.10;99.90;;;;;;5072949;28;20496;-69
2023/03/01 01:49:33;;;;;;;22.42;14.38;;;0.90;99.90;;;;;;5073095;28;20044;-69
2023/03/01 01:52:20;;;;;;;22.13;15.03;;;0.80;99.90;;;;;;5072803;28;20527;-69
2023/03/01 01:55:06;;;;;;;23.20;14.73;;;0.80;99.90;;;;;;5072624;28;20068;-69
2023/03/01 01:57:34;;;;;;;25.35;15.27;;;1.00;99.90;;;;;;5072950;28;20097;-69
2023/03/01 02:00:07;;;;;;;25.20;15.05;;;0.80;99.90;;;;;;5072888;28;20040;-69
2023/03/01 02:02:33;;;;;;;25.17;14.98;;;0.80;99.90;;;;;;5072628;28;20408;-69
2023/03/01 02:05:10;;;;;;;24.70;14.55;;;0.70;99.90;;;;;;5072463;28;20046;-69
2023/03/01 02:07:38;;;;;;;27.23;14.32;;;0.90;99.90;;;;;;5072882;28;20040;-69
2023/03/01 02:10:04;;;;;;;22.98;14.55;;;0.70;99.90;;;;;;5072639;28;20063;-69
2023/03/01 02:12:30;;;;;;;28.85;13.23;;;1.00;99.90;;;;;;5071548;28;20504;-69
2023/03/01 02:14:56;;;;;;;24.05;15.35;;;1.00;99.90;;;;;;5072427;28;20126;-69
2023/03/01 02:17:22;;;;;;;24.38;12.77;;;0.90;99.90;;;;;;5072496;28;20115;-69
2023/03/01 02:20:13;;;;;;;20.98;13.35;;;0.90;99.90;;;;;;5072236;28;20495;-69
2023/03/01 02:22:39;;;;;;;18.27;11.80;;;0.90;99.90;;;;;;5072218;28;20495;-69
2023/03/01 02:25:19;;;;;;;21.05;12.18;;;0.80;99.90;;;;;;5072185;28;20037;-69
2023/03/01 02:28:17;;;;;;;18.23;11.82;;;0.60;99.90;;;;;;5072317;28;20075;-69
2023/03/01 02:33:32;;;;;;;20.10;12.35;;;0.70;99.90;;;;;;5071932;28;20524;-69
2023/03/01 02:36:01;;;;;;;21.98;12.95;;;0.70;99.90;;;;;;5072197;28;20041;-69
2023/03/01 02:38:27;;;;;;;19.27;12.55;;;0.50;99.90;;;;;;5072095;28;20032;-69
2023/03/01 02:40:55;;;;;;;18.33;12.63;;;0.70;99.90;;;;;;5054050;28;20118;-69
2023/03/01 02:43:24;;;;;;;19.67;11.75;;;0.70;99.90;;;;;;5071713;28;20487;-69
2023/03/01 02:45:57;;;;;;;19.15;12.32;;;0.70;99.90;;;;;;5071988;28;20122;-69
2023/03/01 02:48:22;;;;;;;20.17;12.02;;;0.70;99.90;;;;;;5071973;28;20066;-69
2023/03/01 02:51:04;;;;;;;19.33;12.45;;;0.40;99.90;;;;;;5071880;28;20503;-69
2023/03/01 02:53:48;;;;;;;20.15;12.27;;;0.50;99.90;;;;;;5071778;28;20067;-69
2023/03/01 02:56:13;;;;;;;20.35;13.70;;;0.70;99.90;;;;;;5072006;28;20047;-69
2023/03/01 02:58:45;;;;;;;17.83;12.00;;;0.40;99.90;;;;;;5071886;28;20052;-69
2023/03/01 03:01:14;;;;;;;18.33;12.13;;;0.40;99.90;;;;;;5071764;28;20507;-69
2023/03/01 03:03:40;;;;;;;13.15;9.80;;;0.60;99.90;;;;;;5071377;28;20059;-69
2023/03/01 03:06:06;;;;;;;14.75;8.98;;;0.60;99.90;;;;;;5071665;28;20503;-69
2023/03/01 03:08:32;;;;;;;9.30;7.50;;;0.30;99.90;;;;;;5071707;28;20051;-69
2023/03/01 03:10:57;;;;;;;10.65;8.00;;;0.20;99.90;;;;;;5071717;28;20541;-69
2023/03/01 03:13:28;;;;;;;9.55;7.22;;;0.10;99.90;;;;;;5071452;28;20607;-69
2023/03/01 03:15:55;;;;;;;9.15;7.45;;;0.10;99.90;;;;;;5071705;28;20078;-69
2023/03/01 03:18:21;;;;;;;8.55;7.30;;;0.30;99.90;;;;;;5071490;28;20077;-69
2023/03/01 03:20:46;;;;;;;10.43;7.43;;;0.30;99.90;;;;;;5071638;28;20024;-69
2023/03/01 03:23:13;;;;;;;9.85;7.68;;;0.10;99.90;;;;;;5071851;28;20083;-69
2023/03/01 03:25:39;;;;;;;10.55;7.95;;;0.40;99.90;;;;;;5075813;28;20400;-69
2023/03/01 03:28:12;;;;;;;10.23;8.02;;;0.40;99.90;;;;;;5075727;28;20047;-69
2023/03/01 03:30:39;;;;;;;10.43;7.38;;;0.20;99.90;;;;;;5101901;22;20047;-66
2023/03/01 03:33:06;;;;;;;10.55;7.57;;;0.30;99.90;;;;;;5095155;28;20048;-66
2023/03/01 03:35:37;;;;;;;8.65;7.18;;;0.20;99.90;;;;;;5095710;28;20503;-66
2023/03/01 03:38:09;;;;;;;12.20;8.85;;;0.10;99.90;;;;;;5095830;28;20134;-66
2023/03/01 03:40:52;;;;;;;12.73;9.30;;;0.10;99.90;;;;;;5095135;28;20040;-66
2023/03/01 03:43:22;;;;;;;11.68;8.57;;;0.20;99.90;;;;;;5095339;28;20051;-65
2023/03/01 03:45:50;;;;;;;11.38;7.82;;;0.30;99.90;;;;;;5095757;28;20036;-66
2023/03/01 03:48:16;;;;;;;12.43;8.60;;;0.10;99.90;;;;;;5095587;28;20081;-66
2023/03/01 03:50:47;;;;;;;13.43;8.60;;;0.10;99.90;;;;;;5077511;28;20051;-66
2023/03/01 03:53:13;;;;;;;12.43;9.40;;;0.10;99.90;;;;;;5095036;28;20039;-66
2023/03/01 03:55:39;;;;;;;12.63;9.07;;;0.20;99.90;;;;;;5095314;28;20402;-65
2023/03/01 03:58:07;;;;;;;11.57;8.52;;;0.20;99.90;;;;;;5095473;28;20036;-66
2023/03/01 04:00:34;;;;;;;11.63;8.63;;;0.20;99.90;;;;;;5095340;28;20039;-66
2023/03/01 04:03:00;;;;;;;10.35;8.23;;;0.20;99.90;;;;;;5077261;28;20495;-66
2023/03/01 04:05:26;;;;;;;13.38;7.70;;;0.10;99.90;;;;;;5095050;28;20096;-66
2023/03/01 04:08:00;;;;;;;10.88;8.20;;;0.10;99.90;;;;;;5095135;28;20047;-66
2023/03/01 04:10:27;;;;;;;11.35;8.60;;;0.00;99.90;;;;;;5094997;28;20051;-66
2023/03/01 04:12:55;;;;;;;9.95;7.80;;;0.00;99.90;;;;;;5076971;28;20040;-65
2023/03/01 04:15:23;;;;;;;11.52;8.25;;;0.00;99.90;;;;;;5095029;28;20044;-65
2023/03/01 04:17:50;;;;;;;10.07;7.90;;;0.20;99.90;;;;;;5095006;28;20523;-65
2023/03/01 04:20:18;;;;;;;9.57;8.00;;;0.20;99.90;;;;;;5094955;28;20043;-65
2023/03/01 04:22:46;;;;;;;12.20;9.05;;;-0.10;99.90;;;;;;5094520;28;20123;-65
2023/03/01 04:25:13;;;;;;;11.10;8.63;;;-0.20;99.90;;;;;;5094846;28;20418;-66
2023/03/01 04:27:40;;;;;;;11.27;8.75;;;-0.20;99.90;;;;;;5094786;28;20042;-66
2023/03/01 04:30:06;;;;;;;11.57;8.15;;;0.00;99.90;;;;;;5094568;28;20089;-67
2023/03/01 04:32:32;;;;;;;11.32;8.15;;;-0.10;99.90;;;;;;5076141;28;20036;-66
2023/03/01 04:34:58;;;;;;;13.15;9.63;;;-0.20;99.90;;;;;;5093482;28;20119;-66
2023/03/01 04:37:23;;;;;;;11.40;8.70;;;-0.20;99.90;;;;;;5094356;28;20040;-66
2023/03/01 04:39:49;;;;;;;11.38;8.38;;;-0.30;99.90;;;;;;5076375;28;20048;-65
2023/03/01 04:42:16;;;;;;;11.40;8.95;;;-0.30;99.90;;;;;;5094521;28;20475;-66
2023/03/01 04:44:42;;;;;;;12.48;9.40;;;-0.10;99.90;;;;;;5094239;28;20036;-65
2023/03/01 04:47:08;;;;;;;10.38;8.07;;;-0.10;99.90;;;;;;5094514;28;20040;-65
2023/03/01 04:49:33;;;;;;;12.38;8.40;;;-0.10;99.90;;;;;;5076212;28;20130;-65
2023/03/01 04:52:01;;;;;;;11.88;8.88;;;-0.30;99.90;;;;;;5094012;28;20044;-66
2023/03/01 04:54:27;;;;;;;11.10;8.70;;;-0.30;99.90;;;;;;5094169;28;20047;-66
2023/03/01 04:56:54;;;;;;;11.80;10.02;;;-0.20;99.90;;;;;;5094366;28;20055;-66
2023/03/01 04:59:22;;;;;;;11.80;8.85;;;-0.20;99.90;;;;;;5094267;28;20040;-66
2023/03/01 05:01:48;;;;;;;12.05;9.35;;;-0.10;99.90;;;;;;5094009;28;20043;-65
2023/03/01 05:04:14;;;;;;;11.63;9.18;;;-0.40;99.90;;;;;;5093741;28;20050;-65
2023/03/01 05:06:39;;;;;;;12.35;9.82;;;-0.30;99.90;;;;;;5076125;28;20040;-66
2023/03/01 05:09:05;;;;;;;13.18;9.10;;;-0.40;99.90;;;;;;5093900;28;20116;-66
2023/03/01 05:11:35;;;;;;;12.50;9.30;;;-0.50;99.90;;;;;;5075801;28;20048;-66
2023/03/01 05:14:01;;;;;;;13.27;9.48;;;-0.50;99.90;;;;;;5093751;28;20054;-66
2023/03/01 05:16:27;;;;;;;12.35;9.23;;;-0.50;99.90;;;;;;5076057;28;20097;-66
2023/03/01 05:18:52;;;;;;;12.20;8.73;;;-0.50;99.90;;;;;;5093705;28;20044;-66
2023/03/01 05:21:18;;;;;;;12.48;9.50;;;-0.50;99.90;;;;;;5058877;28;20044;-65
2023/03/01 05:23:44;;;;;;;12.48;10.18;;;-0.50;99.90;;;;;;5075630;28;20411;-66
2023/03/01 05:26:12;;;;;;;13.13;9.55;;;-0.50;99.90;;;;;;5093217;28;20099;-66
2023/03/01 05:28:37;;;;;;;11.05;8.95;;;-0.50;99.90;;;;;;5093794;28;20036;-66
2023/03/01 05:31:09;;;;;;;10.93;9.20;;;-0.50;99.90;;;;;;5093454;28;20047;-66
2023/03/01 05:33:39;;;;;;;12.38;9.40;;;-0.60;99.90;;;;;;5093081;28;20039;-66
2023/03/01 05:36:07;;;;;;;11.98;8.88;;;-0.60;99.90;;;;;;5093602;28;20064;-66
2023/03/01 05:38:33;;;;;;;11.73;7.93;;;-0.60;99.90;;;;;;5075629;28;20115;-65
2023/03/01 05:40:58;;;;;;;11.93;8.77;;;-0.60;99.90;;;;;;5093264;28;20036;-66
2023/03/01 05:43:29;;;;;;;12.30;8.07;;;-0.50;99.90;;;;;;5093122;28;20059;-67
2023/03/01 05:45:57;;;;;;;12.50;9.38;;;-0.50;99.90;;;;;;5093216;28;20047;-66
2023/03/01 05:48:23;;;;;;;11.93;8.25;;;-0.50;99.90;;;;;;5074944;28;20039;-66
2023/03/01 05:50:49;;;;;;;18.48;9.52;;;-0.60;99.90;;;;;;5093039;28;20117;-65
2023/03/01 05:53:20;;;;;;;12.40;8.90;;;-0.70;99.90;;;;;;5092947;28;20028;-65
2023/03/01 05:55:47;;;;;;;13.65;9.20;;;-0.50;99.90;;;;;;5074905;28;20044;-67
2023/03/01 05:58:18;;;;;;;13.52;10.15;;;-0.50;99.90;;;;;;5075073;28;20503;-66
2023/03/01 06:00:45;;;;;;;12.30;9.38;;;-0.70;99.90;;;;;;5092782;28;20036;-66
2023/03/01 06:03:12;;;;;;;10.70;8.30;;;-0.60;99.90;;;;;;5092544;28;20503;-66
2023/03/01 06:05:39;;;;;;;10.88;8.43;;;-0.70;99.90;;;;;;5092941;28;20038;-66
2023/03/01 06:08:05;;;;;;;13.02;10.13;;;-0.70;99.90;;;;;;5092819;28;20036;-66
2023/03/01 06:10:31;;;;;;;12.10;9.38;;;-0.50;99.90;;;;;;5092680;28;20461;-66
2023/03/01 06:12:56;;;;;;;14.13;10.30;;;-0.50;99.90;;;;;;5092657;28;20094;-66
2023/03/01 06:15:22;;;;;;;11.70;8.93;;;-0.80;99.90;;;;;;5074525;28;20047;-66
2023/03/01 06:17:48;;;;;;;11.80;8.55;;;-0.70;99.90;;;;;;5092723;28;20072;-66
2023/03/01 06:20:20;;;;;;;11.30;9.18;;;-0.60;99.90;;;;;;5092787;28;20067;-67
2023/03/01 06:22:47;;;;;;;16.23;9.50;;;-0.60;99.90;;;;;;5092466;28;20071;-67
2023/03/01 06:25:16;;;;;;;13.15;9.20;;;-0.60;99.90;;;;;;5092186;28;20047;-65
2023/03/01 06:27:42;;;;;;;13.07;9.35;;;-0.60;99.90;;;;;;5092308;28;20100;-66
2023/03/01 06:30:10;;;;;;;12.98;9.77;;;-0.80;99.90;;;;;;5092597;28;20040;-66
2023/03/01 06:32:36;;;;;;;15.18;11.50;;;-0.80;99.90;;;;;;5057488;28;20123;-66
2023/03/01 06:35:03;;;;;;;16.55;11.90;;;-0.60;99.90;;;;;;5073912;28;20040;-66
2023/03/01 06:37:29;;;;;;;15.70;11.95;;;-0.60;99.90;;;;;;5092371;28;20032;-65
2023/03/01 06:39:54;;;;;;;16.45;12.00;;;-0.60;99.90;;;;;;5092326;28;20089;-66
2023/03/01 06:42:20;;;;;;;18.58;12.15;;;-0.70;99.90;;;;;;5073974;28;20048;-65
2023/03/01 06:44:46;;;;;;;17.02;11.88;;;-0.80;99.90;;;;;;5073810;28;20040;-67
2023/03/01 06:47:11;;;;;;;16.55;11.82;;;-0.80;99.90;;;;;;5074335;28;20044;-65
2023/03/01 06:49:37;;;;;;;14.30;10.60;;;-0.50;99.90;;;;;;5057249;28;20036;-66
2023/03/01 06:52:03;;;;;;;15.20;11.65;;;-0.50;99.90;;;;;;5092077;28;20093;-66
2023/03/01 06:54:28;;;;;;;17.95;11.68;;;-0.60;99.90;;;;;;5091836;28;20032;-66
2023/03/01 06:56:54;;;;;;;18.40;12.27;;;-0.40;99.90;;;;;;5091924;28;20031;-66
2023/03/01 06:59:20;;;;;;;17.00;11.18;;;-0.60;99.90;;;;;;5091797;28;20100;-67
2023/03/01 07:01:45;;;;;;;16.25;11.57;;;-0.50;99.90;;;;;;5091934;28;20071;-65
2023/03/01 07:04:12;;;;;;;15.05;11.52;;;-0.60;99.90;;;;;;5091540;28;20098;-67
2023/03/01 07:06:38;;;;;;;13.95;10.57;;;-0.30;99.90;;;;;;5074058;28;20058;-66
2023/03/01 07:09:03;;;;;;;15.50;11.38;;;-0.20;99.90;;;;;;5091762;28;20487;-66
2023/03/01 07:11:29;;;;;;;14.77;11.07;;;-0.30;99.90;;;;;;5091610;28;20055;-66
2023/03/01 07:13:55;;;;;;;14.70;11.02;;;-0.20;99.90;;;;;;5073595;28;20040;-67
2023/03/01 07:16:21;;;;;;;15.13;11.73;;;0.10;99.90;;;;;;5091816;28;20126;-66
2023/03/01 07:18:46;;;;;;;14.93;10.88;;;0.00;99.90;;;;;;5091635;28;20072;-66
2023/03/01 07:21:14;;;;;;;14.43;11.13;;;0.10;99.90;;;;;;5073570;28;20040;-67
2023/03/01 07:23:39;;;;;;;15.45;10.93;;;0.50;99.90;;;;;;5091547;28;20499;-67
2023/03/01 07:26:05;;;;;;;17.33;11.30;;;0.60;99.90;;;;;;5073058;28;20070;-65
2023/03/01 07:28:35;;;;;;;17.00;12.20;;;0.60;99.90;;;;;;5091641;28;20036;-66
2023/03/01 07:31:02;;;;;;;15.52;10.65;;;0.80;99.90;;;;;;5091556;28;20051;-66
2023/03/01 07:33:28;;;;;;;17.27;12.00;;;1.20;99.90;;;;;;5073097;28;20043;-66
2023/03/01 07:36:01;;;;;;;17.23;11.73;;;1.30;99.90;;;;;;5091630;28;20032;-66
2023/03/01 07:38:27;;;;;;;15.95;11.02;;;1.30;99.90;;;;;;5091487;28;20446;-67
2023/03/01 07:40:53;;;;;;;16.40;11.23;;;1.50;99.90;;;;;;5091329;28;20028;-66
2023/03/01 07:43:20;;;;;;;15.75;11.75;;;1.80;99.90;;;;;;5091380;28;20415;-65
2023/03/01 07:45:45;;;;;;;16.75;10.70;;;1.80;99.90;;;;;;5091613;28;20037;-65
2023/03/01 07:48:11;;;;;;;17.85;11.80;;;2.10;99.90;;;;;;5091318;28;20039;-65
2023/03/01 07:50:36;;;;;;;16.95;11.48;;;2.30;99.90;;;;;;5091259;28;20093;-65
2023/03/01 07:53:02;;;;;;;16.67;12.15;;;2.40;99.90;;;;;;5073396;28;20046;-66
2023/03/01 07:55:28;;;;;;;18.52;12.50;;;2.40;99.90;;;;;;5091167;28;20032;-66
2023/03/01 07:57:53;;;;;;;17.42;12.40;;;2.50;99.90;;;;;;5091520;28;20170;-66
2023/03/01 08:00:19;;;;;;;20.33;13.93;;;2.60;99.90;;;;;;5090857;28;20032;-65
2023/03/01 08:02:45;;;;;;;18.17;12.90;;;2.80;99.90;;;;;;5091184;28;20032;-65
2023/03/01 08:05:10;;;;;;;21.50;14.68;;;2.90;99.90;;;;;;5073064;28;20523;-65
2023/03/01 08:07:36;;;;;;;20.85;14.45;;;3.10;99.90;;;;;;5091189;28;20499;-67
2023/03/01 08:10:02;;;;;;;25.25;16.75;;;3.20;99.90;;;;;;5073422;28;20036;-66
2023/03/01 08:12:28;;;;;;;27.08;16.63;;;3.40;99.90;;;;;;5095025;28;20036;-66
2023/03/01 08:14:54;;;;;;;21.65;14.80;;;3.60;99.90;;;;;;5095101;28;20089;-70
2023/03/01 08:17:19;;;;;;;23.17;17.30;;;3.50;99.90;;;;;;5060104;28;20036;-70
2023/03/01 08:19:45;;;;;;;20.60;15.15;;;3.40;99.90;;;;;;5077129;28;20553;-70
2023/03/01 08:22:10;;;;;;;23.85;15.95;;;3.50;99.90;;;;;;5076604;28;20529;-70
2023/03/01 08:24:36;;;;;;;21.88;15.75;;;3.50;99.90;;;;;;5076694;28;20467;-70
2023/03/01 08:27:02;;;;;;;21.00;15.85;;;3.40;99.90;;;;;;5076960;28;20048;-70
2023/03/01 08:29:30;;;;;;;23.45;15.43;;;3.50;99.90;;;;;;5076683;28;20044;-70
2023/03/01 08:31:56;;;;;;;22.48;16.60;;;3.70;99.90;;;;;;5076166;28;20039;-73
2023/03/01 08:34:21;;;;;;;22.40;14.85;;;3.80;99.90;;;;;;5075936;28;20040;-74
2023/03/01 08:36:47;;;;;;;26.30;17.50;;;3.80;99.90;;;;;;5076016;28;20093;-74
2023/03/01 08:39:15;;;;;;;30.52;18.23;;;3.90;99.90;;;;;;5060080;28;20541;-74
2023/03/01 08:41:41;;;;;;;26.95;17.60;;;4.30;99.90;;;;;;5094383;28;20511;-74
2023/03/01 08:44:07;;;;;;;24.85;17.30;;;4.40;99.90;;;;;;5059299;28;20043;-75
2023/03/01 08:46:38;;;;;;;28.30;20.70;;;4.60;99.90;;;;;;5094565;28;20449;-74
2023/03/01 08:49:08;;;;;;;28.83;19.27;;;4.80;99.90;;;;;;5076223;28;20064;-74
2023/03/01 08:51:36;;;;;;;34.58;19.98;;;4.80;99.90;;;;;;5094260;28;20040;-74
2023/03/01 08:54:09;;;;;;;25.63;18.77;;;4.80;99.90;;;;;;5059265;28;20126;-74
2023/03/01 08:56:35;;;;;;;23.90;17.70;;;4.90;99.90;;;;;;5059690;28;20062;-74
2023/03/01 08:59:00;;;;;;;29.50;20.40;;;5.00;99.90;;;;;;5059866;28;20048;-75
2023/03/01 09:01:26;;;;;;;32.03;20.33;;;5.00;99.90;;;;;;5076047;28;20047;-74
2023/03/01 09:03:52;;;;;;;31.65;20.83;;;5.00;99.90;;;;;;5093458;28;20036;-73
2023/03/01 09:06:18;;;;;;;30.73;21.08;;;5.10;99.90;;;;;;5075695;28;20028;-74
2023/03/01 09:08:46;;;;;;;34.15;21.60;;;5.20;99.90;;;;;;5075504;28;20376;-74
2023/03/01 09:11:16;;;;;;;32.00;22.75;;;5.20;99.90;;;;;;5075411;28;20044;-74
2023/03/01 09:13:42;;;;;;;29.05;21.88;;;5.20;99.90;;;;;;5072921;28;20034;-74
2023/03/01 09:16:08;;;;;;;35.30;22.88;;;5.30;99.90;;;;;;5075366;28;20517;-75
2023/03/01 09:18:35;;;;;;;31.52;22.42;;;5.30;99.90;;;;;;5075230;28;20127;-75
2023/03/01 09:21:13;;;;;;;33.80;23.02;;;5.30;99.90;;;;;;5074911;28;20032;-74
2023/03/01 09:23:41;;;;;;;33.40;22.40;;;5.50;99.90;;;;;;5058478;28;20043;-75
2023/03/01 09:26:09;;;;;;;34.35;22.80;;;5.40;99.90;;;;;;5075194;28;20115;-74
2023/03/01 09:28:36;;;;;;;33.08;23.67;;;5.40;99.90;;;;;;5075096;28;20070;-74
2023/03/01 09:31:02;;;;;;;32.15;20.85;;;5.40;99.90;;;;;;5074793;28;20051;-74
2023/03/01 09:33:29;;;;;;;34.03;22.30;;;5.40;99.90;;;;;;5058437;28;20056;-74
2023/03/01 09:36:03;;;;;;;35.70;23.77;;;5.30;99.90;;;;;;5074977;28;20036;-73
2023/03/01 09:38:29;;;;;;;40.03;24.35;;;5.30;99.90;;;;;;5056762;28;20138;-74
2023/03/01 09:40:55;;;;;;;37.67;23.42;;;5.30;99.90;;;;;;5058274;28;20090;-74
2023/03/01 09:43:45;;;;;;;36.88;24.92;;;5.20;99.90;;;;;;5114811;22;20039;-77
2023/03/01 09:46:16;;;;;;;31.58;23.02;;;5.20;99.90;;;;;;5113694;28;20039;-77
2023/03/01 09:48:50;;;;;;;36.90;25.30;;;5.30;99.90;;;;;;5112149;28;20043;-76
2023/03/01 09:51:22;;;;;;;32.35;22.40;;;5.40;99.90;;;;;;5112231;28;20046;-77
2023/03/01 09:53:47;;;;;;;31.95;21.15;;;5.40;99.90;;;;;;5095621;28;20139;-76
2023/03/01 09:56:52;;;;;;;31.90;21.13;;;5.30;99.90;;;;;;5092903;28;20554;-76
2023/03/01 09:59:26;;;;;;;36.85;23.25;;;5.30;99.90;;;;;;5080515;28;20044;-76
2023/03/01 10:02:17;;;;;;;40.53;25.02;;;5.60;99.90;;;;;;5093084;28;20089;-76
2023/03/01 10:04:47;;;;;;;33.60;22.63;;;5.60;99.90;;;;;;5084608;28;20052;-76
2023/03/01 10:07:29;;;;;;;35.92;23.88;;;5.70;99.90;;;;;;5084964;28;20134;-77
2023/03/01 10:09:55;;;;;;;31.85;21.40;;;5.70;99.90;;;;;;5090648;28;20036;-76
2023/03/01 10:12:30;;;;;;;33.75;20.00;;;5.70;99.90;;;;;;5089324;28;20047;-75
2023/03/01 10:15:12;;;;;;;28.48;18.73;;;5.80;99.90;;;;;;5088270;28;20119;-76
2023/03/01 10:17:52;;;;;;;31.70;19.20;;;5.80;99.90;;;;;;5091034;28;20055;-76
2023/03/01 10:20:18;;;;;;;28.77;18.65;;;5.80;99.90;;;;;;5090852;28;20039;-75
2023/03/01 10:22:50;;;;;;;29.52;18.80;;;5.80;99.90;;;;;;5087941;28;20450;-76
2023/03/01 10:25:21;;;;;;;27.00;17.88;;;5.70;99.90;;;;;;5090404;28;20044;-76
2023/03/01 10:27:54;;;;;;;27.13;17.98;;;5.70;99.90;;;;;;5089106;28;20452;-78
2023/03/01 10:30:38;;;;;;;30.90;16.93;;;5.70;99.90;;;;;;5088410;28;20491;-75
2023/03/01 10:33:15;;;;;;;20.58;13.15;;;5.80;99.90;;;;;;5089490;28;20044;-76
2023/03/01 10:35:41;;;;;;;22.58;14.75;;;5.70;99.90;;;;;;5090975;28;20086;-76
2023/03/01 10:38:10;;;;;;;20.00;14.15;;;5.80;99.90;;;;;;5091103;28;20047;-76
2023/03/01 10:40:49;;;;;;;19.88;13.82;;;5.80;99.90;;;;;;5090743;28;20039;-76
2023/03/01 10:43:15;;;;;;;25.02;14.10;;;5.80;99.90;;;;;;5090682;28;20052;-76
2023/03/01 10:45:42;;;;;;;24.48;14.35;;;5.80;99.90;;;;;;5090477;28;20047;-76
2023/03/01 10:48:28;;;;;;;24.90;15.55;;;5.90;99.90;;;;;;5090747;28;20078;-75
2023/03/01 10:50:57;;;;;;;24.95;15.80;;;5.90;99.90;;;;;;5090044;28;20044;-75
2023/03/01 10:53:30;;;;;;;25.10;15.45;;;5.80;99.90;;;;;;5090185;28;20082;-75
2023/03/01 10:55:59;;;;;;;25.73;17.17;;;5.80;99.90;;;;;;5089344;28;20521;-75
2023/03/01 10:58:25;;;;;;;23.42;15.30;;;5.80;99.90;;;;;;5090490;28;20086;-75
2023/03/01 11:00:54;;;;;;;24.40;13.88;;;5.80;99.90;;;;;;5090338;28;20040;-75
2023/03/01 11:03:27;;;;;;;25.85;14.25;;;5.80;99.90;;;;;;5089929;28;20048;-76
2023/03/01 11:06:04;;;;;;;;;;;5.80;99.90;;;;;;5073836;28;20047;-75
2023/03/01 11:08:50;;;;;;;25.17;14.70;;;5.80;99.90;;;;;;5091721;28;19926;-76
2023/03/01 11:11:33;;;;;;;24.40;16.52;;;5.80;99.90;;;;;;5073367;28;20491;-75
2023/03/01 11:14:20;;;;;;;23.58;16.25;;;5.90;99.90;;;;;;5073089;28;20056;-75
2023/03/01 11:16:57;;;;;;;24.70;15.98;;;6.00;99.90;;;;;;5089602;28;20052;-76
2023/03/01 11:19:22;;;;;;;25.33;16.75;;;6.10;99.90;;;;;;5073512;28;20047;-76
2023/03/01 11:22:20;;;;;;;24.42;16.95;;;6.20;99.90;;;;;;5091524;28;20036;-75
2023/03/01 11:24:51;;;;;;;23.98;16.52;;;6.30;99.90;;;;;;5086247;28;20119;-75
2023/03/01 11:27:30;;;;;;;25.40;16.40;;;6.30;99.90;;;;;;5089643;28;20036;-76
2023/03/01 11:30:02;;;;;;;25.38;16.33;;;6.30;99.90;;;;;;5090043;28;20602;-76
2023/03/01 11:32:53;;;;;;;20.52;14.45;;;6.40;99.90;;;;;;5089913;28;20040;-76
2023/03/01 11:35:27;;;;;;;22.50;15.27;;;6.30;99.90;;;;;;5062168;28;20464;-76
2023/03/01 11:38:02;;;;;;;20.65;14.43;;;6.30;99.90;;;;;;5090369;28;20028;-76
2023/03/01 11:40:29;;;;;;;21.52;14.85;;;6.30;99.90;;;;;;5091207;28;20507;-76
2023/03/01 11:43:19;;;;;;;25.25;15.15;;;6.30;99.90;;;;;;5090087;28;20077;-76
2023/03/01 11:46:03;;;;;;;19.88;13.38;;;6.30;99.90;;;;;;5094002;28;20146;-76
2023/03/01 11:48:46;;;;;;;25.00;15.80;;;6.30;99.90;;;;;;5095418;28;20072;-76
2023/03/01 11:51:53;;;;;;;18.95;15.50;;;6.30;99.90;;;;;;5095522;28;20080;-76
2023/03/01 11:54:38;;;;;;;25.95;16.55;;;6.40;99.90;;;;;;5093907;28;20402;-77
2023/03/01 11:57:36;;;;;;;29.25;15.82;;;6.40;99.90;;;;;;5095514;28;20050;-76
2023/03/01 12:00:23;;;;;;;21.52;14.65;;;6.40;99.90;;;;;;5041853;28;20083;-76
2023/03/01 12:03:06;;;;;;;22.17;15.23;;;6.50;99.90;;;;;;5095350;28;20036;-76
2023/03/01 12:05:43;;;;;;;24.20;15.70;;;6.50;99.90;;;;;;5094062;28;20058;-76
2023/03/01 12:08:20;;;;;;;19.05;13.88;;;6.50;99.90;;;;;;5094241;28;20059;-76
2023/03/01 12:11:15;;;;;;;20.02;14.38;;;6.50;99.90;;;;;;5076696;28;20083;-76
2023/03/01 12:13:54;;;;;;;21.50;14.23;;;6.50;99.90;;;;;;5092740;28;20102;-77
2023/03/01 12:16:38;;;;;;;16.77;11.50;;;6.50;99.90;;;;;;5094060;28;20068;-77
2023/03/01 12:19:25;;;;;;;19.50;12.55;;;6.50;99.90;;;;;;5094088;28;20402;-77
2023/03/01 12:22:24;;;;;;;19.17;14.27;;;6.60;99.90;;;;;;5093734;28;20040;-79
2023/03/01 12:25:06;;;;;;;18.55;12.45;;;6.70;99.90;;;;;;5093582;28;20545;-76
2023/03/01 12:27:52;;;;;;;24.50;14.80;;;6.70;99.90;;;;;;5093546;28;20036;-78
2023/03/01 12:30:23;;;;;;;17.38;12.00;;;6.70;99.90;;;;;;5093426;28;20040;-77
2023/03/01 12:33:04;;;;;;;21.05;13.13;;;6.70;99.90;;;;;;5094537;28;20145;-78
2023/03/01 12:35:48;;;;;;;20.73;14.15;;;6.80;99.90;;;;;;5093304;28;20044;-77
2023/03/01 12:38:29;;;;;;;21.92;13.65;;;6.80;99.90;;;;;;5093420;28;20040;-77
2023/03/01 12:41:13;;;;;;;21.58;13.30;;;6.90;99.90;;;;;;5093349;28;20063;-78
2023/03/01 12:43:51;;;;;;;19.67;13.20;;;6.80;99.90;;;;;;5092842;28;20051;-78
2023/03/01 12:46:28;;;;;;;19.60;14.15;;;6.80;99.90;;;;;;5093266;28;20043;-77
2023/03/01 12:49:09;;;;;;;23.27;13.75;;;6.80;99.90;;;;;;5076172;28;20043;-77
2023/03/01 12:51:38;;;;;;;22.33;13.40;;;6.90;99.90;;;;;;5092639;28;20043;-78
2023/03/01 12:54:24;;;;;;;19.25;12.98;;;6.90;99.90;;;;;;5092628;28;20046;-76
2023/03/01 12:56:51;;;;;;;23.00;15.18;;;6.90;99.90;;;;;;5092281;28;20040;-76